Big Lake, Indiana
Current Conditions -  °F | °C
As of 10:54 AM on Tuesday 21 Oct 2014 (Local Time) from KFWA Reporting Station
Broken Clouds Broken Clouds  
Wind Chill: 43°   Ceiling: 1900
Heat Index: 48°   Visibility: 10mi
Dew Point: 42°   Wind: 12mph
Humidity: 80%   Direction: 330°NNW
Pressure: 30.07"   Gusts: NA
Location:  41.1479°N, 85.4772°W
Report Text: KFWA 211454Z 33010KT 10SM BKN019 BKN027 09/06 A3007 RMK AO2 SLP185 T00890056 51019
Loading
Personal Weather Stations






























Interactive Weather Map
Tropical Storm Tracking
New forecast layout! Learn more

10-Day Weather Forecast

Advertisements
Track Severe Weather on mobile